Time;durP1;ratioP1;P1;durP2;ratioP2;P2;SDS_P1;SDS_P2;PMS_P1;PMS_P2;Temp;Humidity;BMP_temperature;BMP_pressure;BME280_temperature;BME280_humidity;BME280_pressure;Samples;Min_cycle;Max_cycle;Signal;HPM_P1;HPM_P2
2022/02/04 00:01:22;;;;;;;;;;;17.40;37.10;;;;;;8335078;28;20035;-52
2022/02/04 00:26:45;;;;;;;;;;;17.30;37.10;;;;;;8333235;28;19987;-54
2022/02/04 00:30:57;;;;;;;;;;;17.20;37.10;;;;;;8335041;28;19921;-52
2022/02/04 00:35:20;;;;;;;;;;;17.30;37.10;;;;;;8331923;28;19924;-53
2022/02/04 00:39:27;;;;;;;;;;;17.30;37.10;;;;;;8332361;28;19917;-54
2022/02/04 00:43:28;;;;;;;;;;;17.30;37.10;;;;;;8333479;28;19913;-55
2022/02/04 00:47:32;;;;;;;;;;;17.30;37.10;;;;;;8332295;28;19917;-54
2022/02/04 00:56:25;;;;;;;;;;;17.30;37.10;;;;;;8177495;29;20283;-54
2022/02/04 01:13:33;;;;;;;;;;;17.30;37.10;;;;;;8327868;28;20040;-52
2022/02/04 01:26:18;;;;;;;;;;;17.20;37.00;;;;;;8311510;28;19939;-53
2022/02/04 01:30:25;;;;;;;;;;;17.20;37.00;;;;;;8330948;28;19913;-52
2022/02/04 01:34:25;;;;;;;;;;;17.20;37.00;;;;;;8331860;28;19917;-52
2022/02/04 01:38:26;;;;;;;;;;;17.20;37.60;;;;;;8330891;28;20292;-51
2022/02/04 01:42:27;;;;;;;;;;;17.20;37.10;;;;;;8330629;28;19924;-53
2022/02/04 01:46:27;;;;;;;;;;;17.20;37.10;;;;;;8329384;28;20392;-54
2022/02/04 01:50:29;;;;;;;;;;;17.20;37.10;;;;;;8330396;28;19913;-53
2022/02/04 01:54:30;;;;;;;;;;;17.20;37.10;;;;;;8330390;28;19963;-54
2022/02/04 01:58:30;;;;;;;;;;;17.20;37.10;;;;;;8330042;28;19913;-54
2022/02/04 02:02:31;;;;;;;;;;;17.20;37.10;;;;;;8330237;28;20397;-53
2022/02/04 02:06:58;;;;;;;;;;;17.20;37.20;;;;;;8330353;28;19921;-51
2022/02/04 02:10:59;;;;;;;;;;;17.20;37.20;;;;;;8318766;28;20380;-55
2022/02/04 02:15:14;;;;;;;;;;;17.10;37.20;;;;;;8336962;28;19970;-55
2022/02/04 02:45:21;;;;;;;;;;;17.10;37.30;;;;;;8339876;28;20047;-54
2022/02/04 02:53:55;;;;;;;;;;;17.10;37.30;;;;;;8342866;28;19925;-53
2022/02/04 02:58:15;;;;;;;;;;;17.10;37.30;;;;;;8335594;28;19928;-54
2022/02/04 03:02:15;;;;;;;;;;;17.10;37.30;;;;;;8335186;28;19929;-53
2022/02/04 03:06:16;;;;;;;;;;;17.10;37.30;;;;;;8335216;28;19921;-54
2022/02/04 03:10:16;;;;;;;;;;;17.10;37.30;;;;;;8334693;28;19917;-54
2022/02/04 03:14:17;;;;;;;;;;;17.10;37.30;;;;;;8335226;28;19924;-52
2022/02/04 03:18:23;;;;;;;;;;;17.10;37.30;;;;;;8335102;28;19917;-56
2022/02/04 03:22:24;;;;;;;;;;;17.10;37.30;;;;;;8335221;28;19921;-54
2022/02/04 03:30:44;;;;;;;;;;;17.10;37.30;;;;;;8337497;28;19956;-53
2022/02/04 03:34:45;;;;;;;;;;;17.10;37.30;;;;;;8333719;28;20110;-52
2022/02/04 03:38:45;;;;;;;;;;;17.10;37.30;;;;;;8334443;28;19917;-53
2022/02/04 03:42:46;;;;;;;;;;;17.10;37.30;;;;;;8334111;28;19924;-54
2022/02/04 03:46:47;;;;;;;;;;;17.10;37.20;;;;;;8333586;28;20337;-53
2022/02/04 03:50:47;;;;;;;;;;;17.10;37.20;;;;;;8334163;28;20071;-54
2022/02/04 03:54:48;;;;;;;;;;;17.10;37.20;;;;;;8334325;28;19920;-54
2022/02/04 03:58:48;;;;;;;;;;;17.10;37.30;;;;;;8333221;28;19924;-54
2022/02/04 04:02:49;;;;;;;;;;;17.10;37.20;;;;;;8333809;28;19952;-55
2022/02/04 04:06:49;;;;;;;;;;;17.10;37.30;;;;;;8333328;28;19921;-52
2022/02/04 04:10:51;;;;;;;;;;;17.10;37.30;;;;;;8314930;28;20282;-53
2022/02/04 04:14:55;;;;;;;;;;;17.10;37.20;;;;;;8333553;28;19920;-52
2022/02/04 04:18:55;;;;;;;;;;;17.10;37.30;;;;;;8333257;28;19921;-54
2022/02/04 04:22:56;;;;;;;;;;;17.10;37.80;;;;;;8332364;28;19921;-52
2022/02/04 04:26:57;;;;;;;;;;;17.10;37.30;;;;;;8333038;28;20278;-51
2022/02/04 04:30:57;;;;;;;;;;;17.10;37.30;;;;;;8332441;28;19936;-54
2022/02/04 04:34:58;;;;;;;;;;;17.10;37.30;;;;;;8308455;28;20019;-51
2022/02/04 04:39:12;;;;;;;;;;;17.10;37.30;;;;;;8332401;28;20012;-52
2022/02/04 04:43:29;;;;;;;;;;;17.10;37.30;;;;;;8333654;28;19971;-54
2022/02/04 05:26:31;;;;;;;;;;;17.10;37.30;;;;;;8330581;28;19968;-51
2022/02/04 05:30:32;;;;;;;;;;;17.10;37.30;;;;;;8330968;28;19924;-54
2022/02/04 05:34:32;;;;;;;;;;;17.10;37.30;;;;;;8330484;28;19921;-54
2022/02/04 05:38:34;;;;;;;;;;;17.10;37.30;;;;;;8331329;28;19921;-50
2022/02/04 05:42:38;;;;;;;;;;;17.10;37.30;;;;;;8312572;28;19917;-53
2022/02/04 05:51:45;;;;;;;;;;;17.10;37.30;;;;;;8333253;28;19967;-55
2022/02/04 06:03:43;;;;;;;;;;;17.00;37.30;;;;;;8330391;28;19921;-55
2022/02/04 06:08:17;;;;;;;;;;;17.10;37.40;;;;;;8312063;28;19921;-54
2022/02/04 06:24:57;;;;;;;;;;;17.10;37.30;;;;;;8314777;28;19924;-55
2022/02/04 06:28:58;;;;;;;;;;;17.00;37.30;;;;;;8329293;28;19917;-49
2022/02/04 06:32:59;;;;;;;;;;;17.10;37.40;;;;;;8329781;28;20404;-54
2022/02/04 06:36:59;;;;;;;;;;;17.10;37.40;;;;;;8329241;28;19924;-52
2022/02/04 06:41:00;;;;;;;;;;;17.00;37.30;;;;;;8329501;28;19917;-54
2022/02/04 06:45:00;;;;;;;;;;;17.00;37.30;;;;;;8330115;28;19941;-53
2022/02/04 06:49:01;;;;;;;;;;;17.00;37.30;;;;;;8329077;28;19963;-54
2022/02/04 06:53:03;;;;;;;;;;;17.00;37.30;;;;;;8329245;28;19934;-54
2022/02/04 06:57:04;;;;;;;;;;;17.00;37.30;;;;;;8335324;28;19948;-51
2022/02/04 07:01:05;;;;;;;;;;;17.00;37.30;;;;;;8335416;28;20340;-54
2022/02/04 07:05:11;;;;;;;;;;;17.00;37.30;;;;;;8335633;28;19921;-53
2022/02/04 07:09:25;;;;;;;;;;;17.00;37.30;;;;;;8339927;28;19917;-52
2022/02/04 07:13:42;;;;;;;;;;;17.00;37.30;;;;;;8334660;28;19983;-49
2022/02/04 07:18:02;;;;;;;;;;;17.00;37.30;;;;;;8341104;28;20316;-52
2022/02/04 07:22:03;;;;;;;;;;;17.00;37.30;;;;;;8334167;28;19924;-54
2022/02/04 07:26:04;;;;;;;;;;;17.00;37.30;;;;;;8334812;28;20004;-53
2022/02/04 07:30:05;;;;;;;;;;;17.00;37.30;;;;;;8334598;28;19921;-51
2022/02/04 07:34:17;;;;;;;;;;;17.00;37.30;;;;;;8333780;28;19929;-50
2022/02/04 07:42:37;;;;;;;;;;;17.00;37.30;;;;;;8334402;28;19991;-55
2022/02/04 07:46:38;;;;;;;;;;;17.00;37.30;;;;;;8333963;28;19917;-53
2022/02/04 07:50:38;;;;;;;;;;;17.00;37.30;;;;;;8334318;28;19917;-52
2022/02/04 07:54:39;;;;;;;;;;;17.00;37.30;;;;;;8333860;28;19917;-52
2022/02/04 07:58:39;;;;;;;;;;;17.00;37.30;;;;;;8345275;28;20286;-53
2022/02/04 08:02:40;;;;;;;;;;;17.00;37.30;;;;;;8333281;28;19921;-54
2022/02/04 08:06:47;;;;;;;;;;;17.00;37.30;;;;;;8332745;28;20019;-54
2022/02/04 08:11:13;;;;;;;;;;;17.00;37.20;;;;;;8309351;28;20216;-51
2022/02/04 08:15:41;;;;;;;;;;;17.00;37.20;;;;;;8300177;28;19917;-52
2022/02/04 08:28:37;;;;;;;;;;;17.00;37.20;;;;;;8302325;28;19963;-52
2022/02/04 08:32:45;;;;;;;;;;;17.00;37.20;;;;;;8299511;28;20020;-53
2022/02/04 08:54:05;;;;;;;;;;;17.00;37.20;;;;;;8337898;28;19926;-55
2022/02/04 08:58:23;;;;;;;;;;;17.00;37.20;;;;;;8331256;28;19963;-53
2022/02/04 09:02:35;;;;;;;;;;;17.00;37.20;;;;;;8338706;28;20000;-54
2022/02/04 09:06:43;;;;;;;;;;;17.00;37.20;;;;;;8331736;28;19925;-54
2022/02/04 09:10:47;;;;;;;;;;;17.00;37.20;;;;;;8331716;28;20370;-49
2022/02/04 09:19:18;;;;;;;;;;;17.00;37.10;;;;;;8329747;28;20281;-54
2022/02/04 09:23:19;;;;;;;;;;;17.00;37.10;;;;;;8330957;28;20408;-50
2022/02/04 09:27:19;;;;;;;;;;;17.00;37.10;;;;;;8331302;28;19924;-54
2022/02/04 09:31:20;;;;;;;;;;;17.10;37.20;;;;;;8330736;28;19925;-50
2022/02/04 09:35:22;;;;;;;;;;;17.00;37.10;;;;;;8330653;28;19917;-51
2022/02/04 09:39:22;;;;;;;;;;;17.10;37.10;;;;;;8330703;28;19917;-51
2022/02/04 09:43:23;;;;;;;;;;;17.10;37.10;;;;;;8329921;28;19927;-52
2022/02/04 09:47:25;;;;;;;;;;;17.10;37.10;;;;;;8296527;28;20381;-54
2022/02/04 09:51:47;;;;;;;;;;;17.10;37.10;;;;;;8330728;28;19929;-50
2022/02/04 10:21:10;;;;;;;;;;;17.10;37.10;;;;;;8330094;28;19917;-54
2022/02/04 10:25:13;;;;;;;;;;;17.10;37.10;;;;;;8329304;28;20396;-51
2022/02/04 10:29:19;;;;;;;;;;;17.10;37.00;;;;;;8331526;28;19917;-51
2022/02/04 10:33:20;;;;;;;;;;;17.10;37.10;;;;;;8336130;28;19932;-51
2022/02/04 10:37:27;;;;;;;;;;;17.10;37.00;;;;;;8335983;28;20367;-51
2022/02/04 10:41:32;;;;;;;;;;;17.10;37.00;;;;;;8336935;28;19917;-51
2022/02/04 10:50:01;;;;;;;;;;;17.10;37.00;;;;;;8336289;28;19917;-50
2022/02/04 11:02:51;;;;;;;;;;;17.10;36.90;;;;;;8335740;28;19928;-50
2022/02/04 11:33:01;;;;;;;;;;;17.10;37.00;;;;;;8337256;28;19933;-50
2022/02/04 11:37:08;;;;;;;;;;;17.10;36.90;;;;;;8334312;28;19956;-49
2022/02/04 11:54:30;;;;;;;;;;;17.20;37.00;;;;;;8334202;28;20326;-52
2022/02/04 11:58:51;;;;;;;;;;;17.20;36.90;;;;;;8334426;28;20293;-51
2022/02/04 12:02:52;;;;;;;;;;;17.10;36.80;;;;;;8333493;28;19924;-54
2022/02/04 12:06:54;;;;;;;;;;;17.10;36.80;;;;;;8336687;28;19917;-51
2022/02/04 12:10:55;;;;;;;;;;;17.10;36.80;;;;;;8332802;28;19959;-52
2022/02/04 12:15:15;;;;;;;;;;;17.20;36.80;;;;;;8334116;28;19967;-50
2022/02/04 12:19:16;;;;;;;;;;;17.20;36.80;;;;;;8332744;28;19927;-51
2022/02/04 12:23:25;;;;;;;;;;;17.20;36.80;;;;;;8333322;28;19918;-52
2022/02/04 12:27:28;;;;;;;;;;;17.20;36.80;;;;;;8335514;28;19928;-49
2022/02/04 12:31:32;;;;;;;;;;;17.20;36.80;;;;;;8334812;28;20431;-49
2022/02/04 12:35:33;;;;;;;;;;;17.20;36.80;;;;;;8334600;28;20313;-49
2022/02/04 12:39:33;;;;;;;;;;;17.10;36.80;;;;;;8334532;28;19951;-50
2022/02/04 12:43:37;;;;;;;;;;;17.20;36.80;;;;;;8332754;28;20360;-54
2022/02/04 12:47:38;;;;;;;;;;;17.20;36.80;;;;;;8332726;28;19917;-51
2022/02/04 12:51:55;;;;;;;;;;;17.20;36.80;;;;;;8328394;28;19968;-51
2022/02/04 12:56:06;;;;;;;;;;;17.20;36.80;;;;;;8330464;28;19921;-52
2022/02/04 13:00:33;;;;;;;;;;;17.20;36.80;;;;;;8333465;28;19917;-54
2022/02/04 13:09:32;;;;;;;;;;;17.20;36.80;;;;;;8331419;28;19924;-53
2022/02/04 13:13:20;;;;;;;;;;;17.20;36.80;;;;;;8330856;28;19932;-52
2022/02/04 13:17:31;;;;;;;;;;;17.20;36.80;;;;;;8331191;28;20020;-54
2022/02/04 13:21:33;;;;;;;;;;;17.20;36.80;;;;;;8331249;28;20332;-51
2022/02/04 13:25:35;;;;;;;;;;;17.20;36.80;;;;;;8330450;28;19921;-49
2022/02/04 13:29:35;;;;;;;;;;;17.20;36.80;;;;;;8331140;28;19917;-52
2022/02/04 13:33:39;;;;;;;;;;;17.20;36.80;;;;;;8325509;28;20035;-51
2022/02/04 13:37:42;;;;;;;;;;;17.20;36.80;;;;;;8325182;28;20008;-51
2022/02/04 13:45:55;;;;;;;;;;;17.20;36.80;;;;;;8342591;28;20368;-54
2022/02/04 13:50:06;;;;;;;;;;;17.20;36.80;;;;;;8300847;28;19922;-54
2022/02/04 13:58:56;;;;;;;;;;;17.30;36.80;;;;;;8297237;28;19944;-54
2022/02/04 14:03:10;;;;;;;;;;;17.30;36.80;;;;;;8330091;28;19967;-54
2022/02/04 14:07:12;;;;;;;;;;;17.30;36.70;;;;;;8329489;28;19917;-50
2022/02/04 14:11:14;;;;;;;;;;;17.30;36.70;;;;;;8297546;28;19925;-53
2022/02/04 14:15:14;;;;;;;;;;;17.20;36.60;;;;;;8297373;28;19925;-53
2022/02/04 14:19:15;;;;;;;;;;;17.30;36.70;;;;;;8294974;28;19953;-50
2022/02/04 14:23:16;;;;;;;;;;;17.30;36.70;;;;;;8285472;28;19925;-52
2022/02/04 14:27:16;;;;;;;;;;;17.30;36.70;;;;;;8290775;28;19921;-52
2022/02/04 14:31:37;;;;;;;;;;;17.30;36.70;;;;;;8296286;28;20358;-51
2022/02/04 14:52:58;;;;;;;;;;;17.30;36.60;;;;;;8288873;28;19987;-52
2022/02/04 15:05:23;;;;;;;;;;;17.20;36.60;;;;;;8293965;28;20352;-52
2022/02/04 15:09:23;;;;;;;;;;;17.30;36.60;;;;;;8309314;28;19918;-52
2022/02/04 15:13:24;;;;;;;;;;;17.30;36.70;;;;;;8284836;28;19926;-53
2022/02/04 15:17:24;;;;;;;;;;;17.30;36.60;;;;;;8310880;28;20366;-51
2022/02/04 15:21:25;;;;;;;;;;;17.20;36.60;;;;;;8302347;28;20055;-51
2022/02/04 15:25:26;;;;;;;;;;;17.30;36.60;;;;;;8301435;28;19979;-54
2022/02/04 15:29:29;;;;;;;;;;;17.30;36.60;;;;;;8302053;28;19922;-54
2022/02/04 15:33:33;;;;;;;;;;;17.30;36.60;;;;;;8334423;28;19979;-53
2022/02/04 15:37:34;;;;;;;;;;;17.30;36.50;;;;;;8296462;28;19957;-52
2022/02/04 15:41:37;;;;;;;;;;;17.30;36.50;;;;;;8300485;28;19941;-50
2022/02/04 15:50:17;;;;;;;;;;;17.30;36.50;;;;;;8299816;28;19972;-53
2022/02/04 15:54:35;;;;;;;;;;;17.20;36.50;;;;;;8314473;28;20373;-51
2022/02/04 16:06:47;;;;;;;;;;;17.30;36.60;;;;;;8310951;28;20024;-52
2022/02/04 16:15:01;;;;;;;;;;;17.30;36.60;;;;;;8320353;28;19945;-52
2022/02/04 16:19:07;;;;;;;;;;;17.30;36.60;;;;;;8322237;28;19924;-51
2022/02/04 16:23:13;;;;;;;;;;;17.30;36.50;;;;;;8332204;28;19921;-51
2022/02/04 16:31:25;;;;;;;;;;;17.30;36.50;;;;;;8325534;28;19925;-50
2022/02/04 16:35:26;;;;;;;;;;;17.30;36.50;;;;;;8314632;28;20377;-54
2022/02/04 16:39:26;;;;;;;;;;;17.30;36.60;;;;;;8332900;28;19921;-53
2022/02/04 16:43:27;;;;;;;;;;;17.20;36.50;;;;;;8331990;28;19971;-53
2022/02/04 16:47:27;;;;;;;;;;;17.30;36.60;;;;;;8332258;28;19924;-53
2022/02/04 16:51:28;;;;;;;;;;;17.20;36.50;;;;;;8332004;28;19925;-52
2022/02/04 16:55:28;;;;;;;;;;;17.20;36.50;;;;;;8331356;28;19924;-54
2022/02/04 16:59:29;;;;;;;;;;;17.20;36.50;;;;;;8332040;28;19918;-53
2022/02/04 17:03:29;;;;;;;;;;;17.30;36.50;;;;;;8331356;28;19921;-54
2022/02/04 17:07:35;;;;;;;;;;;17.20;36.50;;;;;;8331054;28;19916;-52
2022/02/04 17:11:41;;;;;;;;;;;17.20;36.50;;;;;;8300997;28;20057;-53
2022/02/04 17:15:41;;;;;;;;;;;17.20;36.50;;;;;;8301778;28;20398;-52
2022/02/04 17:19:50;;;;;;;;;;;17.20;36.50;;;;;;8298261;28;19984;-54
2022/02/04 17:23:53;;;;;;;;;;;17.20;36.50;;;;;;8304113;28;19921;-53
2022/02/04 17:27:55;;;;;;;;;;;17.20;36.50;;;;;;8298301;28;19924;-56
2022/02/04 17:31:56;;;;;;;;;;;17.20;36.50;;;;;;8297671;28;19972;-53
2022/02/04 17:35:57;;;;;;;;;;;17.20;36.50;;;;;;8298346;28;20293;-53
2022/02/04 17:39:58;;;;;;;;;;;17.20;36.50;;;;;;8297432;28;19924;-55
2022/02/04 17:43:59;;;;;;;;;;;17.20;36.50;;;;;;8306022;28;20320;-53
2022/02/04 17:48:18;;;;;;;;;;;17.20;36.50;;;;;;8309252;28;19924;-53
2022/02/04 17:52:24;;;;;;;;;;;17.20;36.50;;;;;;8325479;28;20007;-51
2022/02/04 18:01:16;;;;;;;;;;;17.20;36.50;;;;;;8302770;28;20004;-53
2022/02/04 18:09:17;;;;;;;;;;;17.20;36.50;;;;;;8330569;28;19917;-51
2022/02/04 18:13:17;;;;;;;;;;;17.20;36.50;;;;;;8329327;28;19933;-52
2022/02/04 18:17:19;;;;;;;;;;;17.20;36.50;;;;;;8329779;28;19987;-52
2022/02/04 18:21:21;;;;;;;;;;;17.20;36.60;;;;;;8329730;28;19944;-53
2022/02/04 18:25:22;;;;;;;;;;;17.20;36.50;;;;;;8329441;28;19925;-54
2022/02/04 18:29:22;;;;;;;;;;;17.20;36.60;;;;;;8329941;28;19956;-53
2022/02/04 18:33:23;;;;;;;;;;;17.20;36.60;;;;;;8329489;28;20008;-53
2022/02/04 18:37:37;;;;;;;;;;;17.20;36.70;;;;;;8328950;28;20293;-54
2022/02/04 18:42:03;;;;;;;;;;;17.20;36.70;;;;;;8329625;28;20293;-53
2022/02/04 18:46:07;;;;;;;;;;;17.20;36.70;;;;;;8316281;28;20358;-51
2022/02/04 18:50:21;;;;;;;;;;;17.20;36.70;;;;;;8308035;28;19963;-51
2022/02/04 18:58:27;;;;;;;;;;;17.20;36.70;;;;;;8334686;28;19960;-52
2022/02/04 19:02:30;;;;;;;;;;;17.20;36.70;;;;;;8335541;28;19928;-52
2022/02/04 19:06:36;;;;;;;;;;;17.20;36.70;;;;;;8335587;28;19988;-53
2022/02/04 19:10:38;;;;;;;;;;;17.20;36.70;;;;;;8317275;28;19964;-55
2022/02/04 19:14:56;;;;;;;;;;;17.20;36.80;;;;;;8321248;28;21212;-53
2022/02/04 19:23:24;;;;;;;;;;;17.20;36.80;;;;;;8315626;28;20009;-54
2022/02/04 19:27:25;;;;;;;;;;;17.20;36.80;;;;;;8337254;28;20377;-53
2022/02/04 19:31:25;;;;;;;;;;;17.20;36.80;;;;;;8333842;28;19925;-53
2022/02/04 19:35:26;;;;;;;;;;;17.20;36.80;;;;;;8334951;28;19921;-54
2022/02/04 19:39:29;;;;;;;;;;;17.20;36.80;;;;;;8334152;28;20453;-53
2022/02/04 19:43:31;;;;;;;;;;;17.20;36.80;;;;;;8334450;28;20340;-54
2022/02/04 19:47:38;;;;;;;;;;;17.20;36.80;;;;;;8334365;28;20404;-54
2022/02/04 19:51:46;;;;;;;;;;;17.20;36.90;;;;;;8334114;28;19929;-51
2022/02/04 20:25:58;;;;;;;;;;;17.20;37.00;;;;;;8299983;28;19925;-55
2022/02/04 20:29:59;;;;;;;;;;;17.20;37.00;;;;;;8300252;28;20012;-54
2022/02/04 20:34:00;;;;;;;;;;;17.20;37.00;;;;;;8299777;28;19932;-55
2022/02/04 20:38:00;;;;;;;;;;;17.20;37.00;;;;;;8299452;28;20290;-53
2022/02/04 20:42:01;;;;;;;;;;;17.20;37.00;;;;;;8299716;28;19985;-55
2022/02/04 20:46:02;;;;;;;;;;;17.20;37.00;;;;;;8299457;28;20381;-54
2022/02/04 20:50:04;;;;;;;;;;;17.20;37.00;;;;;;8298906;28;20290;-53
2022/02/04 20:54:04;;;;;;;;;;;17.20;37.00;;;;;;8299417;28;20347;-52
2022/02/04 20:58:06;;;;;;;;;;;17.20;37.00;;;;;;8299551;28;19925;-53
2022/02/04 21:02:06;;;;;;;;;;;17.20;37.00;;;;;;8331785;28;19928;-52
2022/02/04 21:06:20;;;;;;;;;;;17.20;37.00;;;;;;8331736;28;20000;-50
2022/02/04 21:18:58;;;;;;;;;;;17.20;37.10;;;;;;8334407;28;20000;-54
2022/02/04 21:22:59;;;;;;;;;;;17.20;37.10;;;;;;8330876;28;20366;-54
2022/02/04 21:26:59;;;;;;;;;;;17.20;37.10;;;;;;8330950;28;19917;-54
2022/02/04 21:31:01;;;;;;;;;;;17.20;37.10;;;;;;8330913;28;19917;-55
2022/02/04 21:39:20;;;;;;;;;;;17.20;37.00;;;;;;8331565;28;19920;-52
2022/02/04 21:43:21;;;;;;;;;;;17.20;37.00;;;;;;8330295;28;19918;-52
2022/02/04 21:47:27;;;;;;;;;;;17.20;37.00;;;;;;8330390;28;19975;-54
2022/02/04 21:51:28;;;;;;;;;;;17.20;37.00;;;;;;8331194;28;20289;-55
2022/02/04 21:55:28;;;;;;;;;;;17.20;37.00;;;;;;8329738;28;19917;-54
2022/02/04 21:59:29;;;;;;;;;;;17.20;37.00;;;;;;8330183;28;19913;-55
2022/02/04 22:03:29;;;;;;;;;;;17.20;37.00;;;;;;8330498;28;19928;-54
2022/02/04 22:07:36;;;;;;;;;;;17.20;37.00;;;;;;8329628;28;19956;-55
2022/02/04 22:24:34;;;;;;;;;;;17.20;37.10;;;;;;8332539;28;20326;-56
2022/02/04 22:28:38;;;;;;;;;;;17.20;37.60;;;;;;8336440;28;19961;-55
2022/02/04 22:37:10;;;;;;;;;;;17.20;37.10;;;;;;8336519;28;20377;-55
2022/02/04 22:45:24;;;;;;;;;;;17.20;37.10;;;;;;8336443;28;19917;-55
2022/02/04 22:57:36;;;;;;;;;;;17.20;37.10;;;;;;8336003;28;19917;-54
2022/02/04 23:01:39;;;;;;;;;;;17.20;37.10;;;;;;8327195;28;19921;-50
2022/02/04 23:05:40;;;;;;;;;;;17.20;37.10;;;;;;8368281;28;19921;-52
2022/02/04 23:09:56;;;;;;;;;;;17.20;37.10;;;;;;8368403;28;20007;-53
2022/02/04 23:14:09;;;;;;;;;;;17.20;37.10;;;;;;8302169;28;20451;-54
2022/02/04 23:18:17;;;;;;;;;;;17.20;37.10;;;;;;8337384;28;19917;-53
2022/02/04 23:22:21;;;;;;;;;;;17.20;37.10;;;;;;8334836;28;19925;-54
2022/02/04 23:26:32;;;;;;;;;;;17.20;37.10;;;;;;8335204;28;20277;-53
2022/02/04 23:49:53;;;;;;;;;;;17.20;37.20;;;;;;8341500;28;19924;-53
2022/02/04 23:51:53;;;;;;;;;;;17.20;37.20;;;;;;8334093;28;19972;-55
2022/02/04 23:55:53;;;;;;;;;;;17.20;37.20;;;;;;8333391;28;19924;-53
